Impacts TAF Board INFO
FOR SITUATIONAL AWARENESS. NOT TO BE USED FOR FLIGHT PLANNING PURPOSES.
IDs:

KSEA - Seattle-Tacoma Intl, WA, US

Issued at 1136 UTC 19 Jun 2018
Updated at 1239 UTC 19 Jun 2018
Potential Impact None Slight Moderate High
Time1153Z 19/13Z 19/14Z 19/15Z 19/16Z 19/17Z 19/18Z 19/19Z 19/20Z 19/21Z 19/22Z 19/23Z 20/00Z 20/01Z>>
Type OBS PRVL
  [TEMP]  
PRVL
  [TEMP]  
PRVL
  [TEMP]  
PRVL PRVL PRVL PRVL PRVL PRVL PRVL PRVL PRVL PRVL
VIS 10 >6 >6 >6 >6 >6 >6 >6 >6 >6 >6 >6 >6 >6
CIG -- --
  [6]  
--
  [6]  
--
  [6]  
-- -- -- -- -- -- -- -- -- --
Cover CLR SCT
  [BKN]  
SCT
  [BKN]  
SCT
  [BKN]  
SCT SCT SCT SCT SCT SCT SCT SCT SCT SCT
FltCat VFR VFR
  [IFR]  
VFR
  [IFR]  
VFR
  [IFR]  
VFR VFR VFR VFR VFR VFR VFR VFR VFR VFR
WX -- --
  [--]  
--
  [--]  
--
  [--]  
-- -- -- -- -- -- -- -- -- --
WDir 180 190
[190]
190
[190]
190
[190]
190 220 220 220 250 250 250 250 250 250
WSpd 5 7
  [7]  
7
  [7]  
7
  [7]  
7 5 5 5 6 6 6 6 6 6
WGst -- --
  [--]  
--
  [--]  
--
  [--]  
-- -- -- -- -- -- -- -- -- --

Raw TAF
KSEA 191136Z 1912/2018 19007KT P6SM SCT007 SCT200
  TEMPO 1912/1916 BKN006
  FM191700 22005KT P6SM SCT200
  FM192000 25006KT P6SM FEW120 SCT200
  FM200200 29005KT P6SM SCT120 SCT200
  FM200600 21004KT P6SM FEW120 BKN200
  FM201200 18006KT P6SM BKN120 BKN200


Raw METAR
KSEA 191153Z 18005KT 10SM CLR 14/12 A3007 RMK AO2 SLP185 T01390117 10189 20139 52007
KSEA 191053Z 19007KT 10SM CLR 14/12 A3006 RMK AO2 SLP181 T01440122
KSEA 190953Z 18006KT 10SM FEW150 SCT250 14/12 A3005 RMK AO2 SLP180 T01440122

METAR Board
Radar Display
Forecast Discussion

FOR SITUATIONAL AWARENESS. NOT TO BE USED FOR FLIGHT PLANNING PURPOSES.